sensor_id;sensor_type;location;lat;lon;timestamp;temperature;humidity
13115;DHT22;6623;52.120;8.660;2023-05-29T00:02:00;22.50;45.80
13115;DHT22;6623;52.120;8.660;2023-05-29T00:04:26;22.60;45.80
13115;DHT22;6623;52.120;8.660;2023-05-29T00:06:51;22.60;45.80
13115;DHT22;6623;52.120;8.660;2023-05-29T00:09:17;22.60;45.80
13115;DHT22;6623;52.120;8.660;2023-05-29T00:11:43;22.60;45.80
13115;DHT22;6623;52.120;8.660;2023-05-29T00:14:08;22.50;45.70
13115;DHT22;6623;52.120;8.660;2023-05-29T00:16:38;22.60;45.80
13115;DHT22;6623;52.120;8.660;2023-05-29T00:19:03;22.50;45.80
13115;DHT22;6623;52.120;8.660;2023-05-29T00:21:29;22.60;45.80
13115;DHT22;6623;52.120;8.660;2023-05-29T00:23:54;22.50;45.80
13115;DHT22;6623;52.120;8.660;2023-05-29T00:26:20;22.60;45.80
13115;DHT22;6623;52.120;8.660;2023-05-29T00:28:46;22.60;45.80
13115;DHT22;6623;52.120;8.660;2023-05-29T00:31:12;22.60;45.80
13115;DHT22;6623;52.120;8.660;2023-05-29T00:33:37;22.60;45.80
13115;DHT22;6623;52.120;8.660;2023-05-29T00:36:03;22.50;45.70
13115;DHT22;6623;52.120;8.660;2023-05-29T00:38:28;22.50;45.70
13115;DHT22;6623;52.120;8.660;2023-05-29T00:40:54;22.50;45.80
13115;DHT22;6623;52.120;8.660;2023-05-29T00:43:19;22.60;45.80
13115;DHT22;6623;52.120;8.660;2023-05-29T00:45:45;22.60;45.80
13115;DHT22;6623;52.120;8.660;2023-05-29T00:48:11;22.50;45.80
13115;DHT22;6623;52.120;8.660;2023-05-29T00:50:36;22.50;45.70
13115;DHT22;6623;52.120;8.660;2023-05-29T00:53:02;22.60;45.80
13115;DHT22;6623;52.120;8.660;2023-05-29T00:55:30;22.50;45.70
13115;DHT22;6623;52.120;8.660;2023-05-29T00:57:56;22.60;45.80
13115;DHT22;6623;52.120;8.660;2023-05-29T01:00:22;22.60;45.80
13115;DHT22;6623;52.120;8.660;2023-05-29T01:02:48;22.60;45.80
13115;DHT22;6623;52.120;8.660;2023-05-29T01:05:14;22.60;45.80
13115;DHT22;6623;52.120;8.660;2023-05-29T01:07:44;22.50;45.70
13115;DHT22;6623;52.120;8.660;2023-05-29T01:10:10;22.60;45.70
13115;DHT22;6623;52.120;8.660;2023-05-29T01:12:55;22.50;45.70
13115;DHT22;6623;52.120;8.660;2023-05-29T01:15:52;22.50;45.70
13115;DHT22;6623;52.120;8.660;2023-05-29T01:18:32;22.60;45.80
13115;DHT22;6623;52.120;8.660;2023-05-29T01:29:07;22.50;45.70
13115;DHT22;6623;52.120;8.660;2023-05-29T01:31:33;22.50;45.70
13115;DHT22;6623;52.120;8.660;2023-05-29T01:34:00;22.50;46.30
13115;DHT22;6623;52.120;8.660;2023-05-29T01:36:26;22.50;45.70
13115;DHT22;6623;52.120;8.660;2023-05-29T01:38:54;22.50;45.70
13115;DHT22;6623;52.120;8.660;2023-05-29T01:41:20;22.60;45.70
13115;DHT22;6623;52.120;8.660;2023-05-29T01:43:48;22.50;45.60
13115;DHT22;6623;52.120;8.660;2023-05-29T01:46:14;22.50;45.60
13115;DHT22;6623;52.120;8.660;2023-05-29T01:48:41;22.60;45.70
13115;DHT22;6623;52.120;8.660;2023-05-29T01:51:08;22.50;45.70
13115;DHT22;6623;52.120;8.660;2023-05-29T01:53:34;22.50;45.70
13115;DHT22;6623;52.120;8.660;2023-05-29T01:56:00;22.50;46.30
13115;DHT22;6623;52.120;8.660;2023-05-29T01:58:26;22.60;45.70
13115;DHT22;6623;52.120;8.660;2023-05-29T02:00:53;22.50;45.60
13115;DHT22;6623;52.120;8.660;2023-05-29T02:03:19;22.50;45.70
13115;DHT22;6623;52.120;8.660;2023-05-29T02:05:44;22.50;45.60
13115;DHT22;6623;52.120;8.660;2023-05-29T02:08:11;22.50;45.70
13115;DHT22;6623;52.120;8.660;2023-05-29T02:10:37;22.50;45.60
13115;DHT22;6623;52.120;8.660;2023-05-29T02:13:02;22.50;45.60
13115;DHT22;6623;52.120;8.660;2023-05-29T02:15:28;22.50;45.60
13115;DHT22;6623;52.120;8.660;2023-05-29T02:17:53;22.50;45.60
13115;DHT22;6623;52.120;8.660;2023-05-29T02:20:19;22.50;45.60
13115;DHT22;6623;52.120;8.660;2023-05-29T02:22:44;22.50;45.60
13115;DHT22;6623;52.120;8.660;2023-05-29T02:25:11;22.50;45.60
13115;DHT22;6623;52.120;8.660;2023-05-29T02:27:36;22.50;46.20
13115;DHT22;6623;52.120;8.660;2023-05-29T02:30:02;22.50;45.60
13115;DHT22;6623;52.120;8.660;2023-05-29T02:32:27;22.50;45.60
13115;DHT22;6623;52.120;8.660;2023-05-29T02:34:54;22.50;45.60
13115;DHT22;6623;52.120;8.660;2023-05-29T02:37:20;22.50;45.60
13115;DHT22;6623;52.120;8.660;2023-05-29T02:39:45;22.50;45.60
13115;DHT22;6623;52.120;8.660;2023-05-29T02:42:11;22.50;45.60
13115;DHT22;6623;52.120;8.660;2023-05-29T02:44:36;22.50;45.60
13115;DHT22;6623;52.120;8.660;2023-05-29T02:47:02;22.60;45.60
13115;DHT22;6623;52.120;8.660;2023-05-29T02:49:27;22.50;45.60
13115;DHT22;6623;52.120;8.660;2023-05-29T02:51:53;22.50;45.60
13115;DHT22;6623;52.120;8.660;2023-05-29T02:54:23;22.50;45.60
13115;DHT22;6623;52.120;8.660;2023-05-29T02:56:49;22.50;45.60
13115;DHT22;6623;52.120;8.660;2023-05-29T02:59:15;22.50;45.60
13115;DHT22;6623;52.120;8.660;2023-05-29T03:01:41;22.50;45.60
13115;DHT22;6623;52.120;8.660;2023-05-29T03:04:11;22.50;45.60
13115;DHT22;6623;52.120;8.660;2023-05-29T03:06:37;22.50;45.60
13115;DHT22;6623;52.120;8.660;2023-05-29T03:09:03;22.50;45.60
13115;DHT22;6623;52.120;8.660;2023-05-29T03:11:31;22.50;45.60
13115;DHT22;6623;52.120;8.660;2023-05-29T03:13:56;22.50;45.50
13115;DHT22;6623;52.120;8.660;2023-05-29T03:16:22;22.50;45.60
13115;DHT22;6623;52.120;8.660;2023-05-29T03:18:47;22.50;45.50
13115;DHT22;6623;52.120;8.660;2023-05-29T03:21:13;22.50;45.50
13115;DHT22;6623;52.120;8.660;2023-05-29T03:23:39;22.50;45.50
13115;DHT22;6623;52.120;8.660;2023-05-29T03:26:05;22.50;45.50
13115;DHT22;6623;52.120;8.660;2023-05-29T03:28:31;22.50;45.50
13115;DHT22;6623;52.120;8.660;2023-05-29T03:30:56;22.50;45.50
13115;DHT22;6623;52.120;8.660;2023-05-29T03:33:22;22.50;45.50
13115;DHT22;6623;52.120;8.660;2023-05-29T03:35:47;22.50;45.50
13115;DHT22;6623;52.120;8.660;2023-05-29T03:38:13;22.50;45.50
13115;DHT22;6623;52.120;8.660;2023-05-29T03:40:38;22.50;45.50
13115;DHT22;6623;52.120;8.660;2023-05-29T03:43:04;22.50;45.50
13115;DHT22;6623;52.120;8.660;2023-05-29T03:45:30;22.50;45.50
13115;DHT22;6623;52.120;8.660;2023-05-29T03:47:55;22.50;45.50
13115;DHT22;6623;52.120;8.660;2023-05-29T03:50:21;22.50;45.50
13115;DHT22;6623;52.120;8.660;2023-05-29T03:52:46;22.50;45.50
13115;DHT22;6623;52.120;8.660;2023-05-29T03:55:12;22.50;45.50
13115;DHT22;6623;52.120;8.660;2023-05-29T03:57:39;22.50;45.50
13115;DHT22;6623;52.120;8.660;2023-05-29T04:00:10;22.50;45.50
13115;DHT22;6623;52.120;8.660;2023-05-29T04:02:40;22.50;46.10
13115;DHT22;6623;52.120;8.660;2023-05-29T04:05:06;22.50;45.50
13115;DHT22;6623;52.120;8.660;2023-05-29T04:07:33;22.50;45.50
13115;DHT22;6623;52.120;8.660;2023-05-29T04:09:58;22.50;45.50
13115;DHT22;6623;52.120;8.660;2023-05-29T04:12:24;22.50;45.40
13115;DHT22;6623;52.120;8.660;2023-05-29T04:14:49;22.50;45.40
13115;DHT22;6623;52.120;8.660;2023-05-29T04:17:15;22.50;45.40
13115;DHT22;6623;52.120;8.660;2023-05-29T04:19:40;22.50;45.50
13115;DHT22;6623;52.120;8.660;2023-05-29T04:22:06;22.50;45.40
13115;DHT22;6623;52.120;8.660;2023-05-29T04:24:33;22.50;45.50
13115;DHT22;6623;52.120;8.660;2023-05-29T04:26:58;22.50;45.40
13115;DHT22;6623;52.120;8.660;2023-05-29T04:29:26;22.50;45.40
13115;DHT22;6623;52.120;8.660;2023-05-29T04:31:51;22.50;45.50
13115;DHT22;6623;52.120;8.660;2023-05-29T04:34:17;22.50;45.40
13115;DHT22;6623;52.120;8.660;2023-05-29T04:36:43;22.50;45.40
13115;DHT22;6623;52.120;8.660;2023-05-29T04:39:10;22.50;45.40
13115;DHT22;6623;52.120;8.660;2023-05-29T04:41:35;22.50;45.40
13115;DHT22;6623;52.120;8.660;2023-05-29T04:44:01;22.50;45.40
13115;DHT22;6623;52.120;8.660;2023-05-29T04:46:27;22.50;45.40
13115;DHT22;6623;52.120;8.660;2023-05-29T04:48:52;22.50;45.40
13115;DHT22;6623;52.120;8.660;2023-05-29T04:51:22;22.50;45.40
13115;DHT22;6623;52.120;8.660;2023-05-29T04:53:49;22.50;45.40
13115;DHT22;6623;52.120;8.660;2023-05-29T04:56:15;22.50;45.40
13115;DHT22;6623;52.120;8.660;2023-05-29T04:58:41;22.50;45.40
13115;DHT22;6623;52.120;8.660;2023-05-29T05:01:07;22.50;45.40
13115;DHT22;6623;52.120;8.660;2023-05-29T05:03:40;22.50;45.40
13115;DHT22;6623;52.120;8.660;2023-05-29T05:06:06;22.50;45.40
13115;DHT22;6623;52.120;8.660;2023-05-29T05:08:33;22.50;45.40
13115;DHT22;6623;52.120;8.660;2023-05-29T05:11:00;22.50;45.40
13115;DHT22;6623;52.120;8.660;2023-05-29T05:13:26;22.50;45.40
13115;DHT22;6623;52.120;8.660;2023-05-29T05:15:52;22.50;45.40
13115;DHT22;6623;52.120;8.660;2023-05-29T05:18:17;22.50;45.40
13115;DHT22;6623;52.120;8.660;2023-05-29T05:20:43;22.50;45.40
13115;DHT22;6623;52.120;8.660;2023-05-29T05:23:09;22.50;45.40
13115;DHT22;6623;52.120;8.660;2023-05-29T05:25:36;22.50;45.40
13115;DHT22;6623;52.120;8.660;2023-05-29T05:28:02;22.50;45.40
13115;DHT22;6623;52.120;8.660;2023-05-29T05:30:28;22.50;45.40
13115;DHT22;6623;52.120;8.660;2023-05-29T05:32:54;22.50;45.40
13115;DHT22;6623;52.120;8.660;2023-05-29T05:35:20;22.50;45.30
13115;DHT22;6623;52.120;8.660;2023-05-29T05:37:46;22.50;45.40
13115;DHT22;6623;52.120;8.660;2023-05-29T05:40:12;22.50;45.40
13115;DHT22;6623;52.120;8.660;2023-05-29T05:42:38;22.50;45.40
13115;DHT22;6623;52.120;8.660;2023-05-29T05:45:03;22.50;45.40
13115;DHT22;6623;52.120;8.660;2023-05-29T05:47:30;22.50;45.40
13115;DHT22;6623;52.120;8.660;2023-05-29T05:49:56;22.50;45.40
13115;DHT22;6623;52.120;8.660;2023-05-29T05:52:22;22.50;45.40
13115;DHT22;6623;52.120;8.660;2023-05-29T05:54:48;22.50;45.40
13115;DHT22;6623;52.120;8.660;2023-05-29T05:57:13;22.50;45.40
13115;DHT22;6623;52.120;8.660;2023-05-29T05:59:39;22.50;45.40
13115;DHT22;6623;52.120;8.660;2023-05-29T06:02:05;22.50;45.40
13115;DHT22;6623;52.120;8.660;2023-05-29T06:04:31;22.50;45.40
13115;DHT22;6623;52.120;8.660;2023-05-29T06:06:56;22.50;45.40
13115;DHT22;6623;52.120;8.660;2023-05-29T06:09:22;22.50;45.40
13115;DHT22;6623;52.120;8.660;2023-05-29T06:11:47;22.50;45.40
13115;DHT22;6623;52.120;8.660;2023-05-29T06:14:14;22.50;45.40
13115;DHT22;6623;52.120;8.660;2023-05-29T06:16:39;22.50;45.40
13115;DHT22;6623;52.120;8.660;2023-05-29T06:19:05;22.50;45.40
13115;DHT22;6623;52.120;8.660;2023-05-29T06:21:32;22.50;45.40
13115;DHT22;6623;52.120;8.660;2023-05-29T06:23:57;22.50;45.50
13115;DHT22;6623;52.120;8.660;2023-05-29T06:26:23;22.50;45.40
13115;DHT22;6623;52.120;8.660;2023-05-29T06:28:52;22.50;45.40
13115;DHT22;6623;52.120;8.660;2023-05-29T06:31:18;22.50;45.40
13115;DHT22;6623;52.120;8.660;2023-05-29T06:33:44;22.50;45.40
13115;DHT22;6623;52.120;8.660;2023-05-29T06:36:10;22.50;45.50
13115;DHT22;6623;52.120;8.660;2023-05-29T06:38:36;22.50;45.50
13115;DHT22;6623;52.120;8.660;2023-05-29T06:41:01;22.50;45.50
13115;DHT22;6623;52.120;8.660;2023-05-29T06:43:27;22.50;45.40
13115;DHT22;6623;52.120;8.660;2023-05-29T06:45:53;22.50;45.50
13115;DHT22;6623;52.120;8.660;2023-05-29T06:48:19;22.50;45.50
13115;DHT22;6623;52.120;8.660;2023-05-29T06:50:44;22.50;45.40
13115;DHT22;6623;52.120;8.660;2023-05-29T06:53:10;22.50;45.50
13115;DHT22;6623;52.120;8.660;2023-05-29T06:55:35;22.50;45.50
13115;DHT22;6623;52.120;8.660;2023-05-29T06:58:01;22.50;45.50
13115;DHT22;6623;52.120;8.660;2023-05-29T07:00:26;22.50;45.50
13115;DHT22;6623;52.120;8.660;2023-05-29T07:02:52;22.50;45.50
13115;DHT22;6623;52.120;8.660;2023-05-29T07:05:18;22.50;45.50
13115;DHT22;6623;52.120;8.660;2023-05-29T07:07:43;22.50;45.50
13115;DHT22;6623;52.120;8.660;2023-05-29T07:10:09;22.50;45.50
13115;DHT22;6623;52.120;8.660;2023-05-29T07:12:35;22.50;45.50
13115;DHT22;6623;52.120;8.660;2023-05-29T07:15:01;22.50;45.50
13115;DHT22;6623;52.120;8.660;2023-05-29T07:17:26;22.50;45.50
13115;DHT22;6623;52.120;8.660;2023-05-29T07:19:52;22.50;45.50
13115;DHT22;6623;52.120;8.660;2023-05-29T07:22:19;22.50;45.50
13115;DHT22;6623;52.120;8.660;2023-05-29T07:24:45;22.50;45.50
13115;DHT22;6623;52.120;8.660;2023-05-29T07:27:10;22.50;45.50
13115;DHT22;6623;52.120;8.660;2023-05-29T07:29:36;22.50;45.50
13115;DHT22;6623;52.120;8.660;2023-05-29T07:32:01;22.50;45.50
13115;DHT22;6623;52.120;8.660;2023-05-29T07:34:27;22.50;45.50
13115;DHT22;6623;52.120;8.660;2023-05-29T07:37:11;22.50;45.50
13115;DHT22;6623;52.120;8.660;2023-05-29T07:39:36;22.50;45.50
13115;DHT22;6623;52.120;8.660;2023-05-29T07:42:02;22.50;45.60
13115;DHT22;6623;52.120;8.660;2023-05-29T07:44:28;22.50;45.50
13115;DHT22;6623;52.120;8.660;2023-05-29T07:46:53;22.50;45.50
13115;DHT22;6623;52.120;8.660;2023-05-29T07:49:22;22.50;45.50
13115;DHT22;6623;52.120;8.660;2023-05-29T07:51:47;22.50;45.50
13115;DHT22;6623;52.120;8.660;2023-05-29T07:54:13;22.50;45.50
13115;DHT22;6623;52.120;8.660;2023-05-29T07:56:38;22.50;45.50
13115;DHT22;6623;52.120;8.660;2023-05-29T07:59:06;22.50;45.60
13115;DHT22;6623;52.120;8.660;2023-05-29T08:01:32;22.50;45.50
13115;DHT22;6623;52.120;8.660;2023-05-29T08:03:58;22.50;45.50
13115;DHT22;6623;52.120;8.660;2023-05-29T08:06:24;22.50;45.50
13115;DHT22;6623;52.120;8.660;2023-05-29T08:08:50;22.50;45.50
13115;DHT22;6623;52.120;8.660;2023-05-29T08:11:17;22.50;45.50
13115;DHT22;6623;52.120;8.660;2023-05-29T08:13:43;22.50;45.60
13115;DHT22;6623;52.120;8.660;2023-05-29T08:16:08;22.50;45.50
13115;DHT22;6623;52.120;8.660;2023-05-29T08:18:34;22.50;45.50
13115;DHT22;6623;52.120;8.660;2023-05-29T08:20:59;22.50;45.50
13115;DHT22;6623;52.120;8.660;2023-05-29T08:23:25;22.50;45.50
13115;DHT22;6623;52.120;8.660;2023-05-29T08:25:50;22.50;45.50
13115;DHT22;6623;52.120;8.660;2023-05-29T08:28:16;22.50;45.50
13115;DHT22;6623;52.120;8.660;2023-05-29T08:30:42;22.50;45.50
13115;DHT22;6623;52.120;8.660;2023-05-29T08:33:07;22.50;45.50
13115;DHT22;6623;52.120;8.660;2023-05-29T08:35:33;22.50;45.50
13115;DHT22;6623;52.120;8.660;2023-05-29T08:37:59;22.50;45.50
13115;DHT22;6623;52.120;8.660;2023-05-29T08:40:25;22.50;45.50
13115;DHT22;6623;52.120;8.660;2023-05-29T08:43:00;22.50;45.50
13115;DHT22;6623;52.120;8.660;2023-05-29T08:45:29;22.50;45.50
13115;DHT22;6623;52.120;8.660;2023-05-29T08:47:56;22.50;45.60
13115;DHT22;6623;52.120;8.660;2023-05-29T08:50:23;22.50;45.50
13115;DHT22;6623;52.120;8.660;2023-05-29T08:52:48;22.50;45.60
13115;DHT22;6623;52.120;8.660;2023-05-29T08:55:15;22.50;45.50
13115;DHT22;6623;52.120;8.660;2023-05-29T08:57:41;22.50;45.50
13115;DHT22;6623;52.120;8.660;2023-05-29T09:00:08;22.50;45.50
13115;DHT22;6623;52.120;8.660;2023-05-29T09:02:44;22.50;45.50
13115;DHT22;6623;52.120;8.660;2023-05-29T09:05:10;22.50;45.50
13115;DHT22;6623;52.120;8.660;2023-05-29T09:07:36;22.50;45.50
13115;DHT22;6623;52.120;8.660;2023-05-29T09:10:09;22.50;45.60
13115;DHT22;6623;52.120;8.660;2023-05-29T09:12:35;22.50;45.60
13115;DHT22;6623;52.120;8.660;2023-05-29T09:15:01;22.50;45.50
13115;DHT22;6623;52.120;8.660;2023-05-29T09:17:31;22.50;45.60
13115;DHT22;6623;52.120;8.660;2023-05-29T09:20:00;22.50;45.60
13115;DHT22;6623;52.120;8.660;2023-05-29T09:22:26;22.50;45.50
13115;DHT22;6623;52.120;8.660;2023-05-29T09:24:51;22.50;45.50
13115;DHT22;6623;52.120;8.660;2023-05-29T09:27:18;22.50;45.50
13115;DHT22;6623;52.120;8.660;2023-05-29T09:29:45;22.50;45.50
13115;DHT22;6623;52.120;8.660;2023-05-29T09:32:14;22.50;45.60
13115;DHT22;6623;52.120;8.660;2023-05-29T09:34:41;22.50;45.50
13115;DHT22;6623;52.120;8.660;2023-05-29T09:37:08;22.50;45.50
13115;DHT22;6623;52.120;8.660;2023-05-29T09:42:04;22.50;45.50
13115;DHT22;6623;52.120;8.660;2023-05-29T09:44:30;22.50;45.50
13115;DHT22;6623;52.120;8.660;2023-05-29T09:46:59;22.50;45.50
13115;DHT22;6623;52.120;8.660;2023-05-29T09:49:25;22.50;45.50
13115;DHT22;6623;52.120;8.660;2023-05-29T09:51:54;22.50;45.50
13115;DHT22;6623;52.120;8.660;2023-05-29T09:54:19;22.50;45.50
13115;DHT22;6623;52.120;8.660;2023-05-29T09:56:45;22.50;45.50
13115;DHT22;6623;52.120;8.660;2023-05-29T09:59:12;22.50;45.50
13115;DHT22;6623;52.120;8.660;2023-05-29T10:01:41;22.50;45.50
13115;DHT22;6623;52.120;8.660;2023-05-29T10:04:10;22.50;45.50
13115;DHT22;6623;52.120;8.660;2023-05-29T10:06:37;22.50;45.50
13115;DHT22;6623;52.120;8.660;2023-05-29T10:09:05;22.50;45.50
13115;DHT22;6623;52.120;8.660;2023-05-29T10:11:33;22.50;45.50
13115;DHT22;6623;52.120;8.660;2023-05-29T10:14:00;22.50;45.50
13115;DHT22;6623;52.120;8.660;2023-05-29T10:16:28;22.50;45.50
13115;DHT22;6623;52.120;8.660;2023-05-29T10:18:55;22.50;45.50
13115;DHT22;6623;52.120;8.660;2023-05-29T10:21:22;22.50;45.40
13115;DHT22;6623;52.120;8.660;2023-05-29T10:23:49;22.50;45.50
13115;DHT22;6623;52.120;8.660;2023-05-29T10:26:19;22.50;45.50
13115;DHT22;6623;52.120;8.660;2023-05-29T10:29:02;22.50;45.50
13115;DHT22;6623;52.120;8.660;2023-05-29T10:31:35;22.50;45.50
13115;DHT22;6623;52.120;8.660;2023-05-29T10:34:25;22.50;45.50
13115;DHT22;6623;52.120;8.660;2023-05-29T10:37:13;22.50;45.50
13115;DHT22;6623;52.120;8.660;2023-05-29T10:39:40;22.50;45.50
13115;DHT22;6623;52.120;8.660;2023-05-29T10:42:40;22.50;45.50
13115;DHT22;6623;52.120;8.660;2023-05-29T10:45:06;22.50;45.40
13115;DHT22;6623;52.120;8.660;2023-05-29T10:47:31;22.50;45.50
13115;DHT22;6623;52.120;8.660;2023-05-29T10:50:01;22.50;45.50
13115;DHT22;6623;52.120;8.660;2023-05-29T10:52:33;22.50;45.50
13115;DHT22;6623;52.120;8.660;2023-05-29T10:54:59;22.50;45.40
13115;DHT22;6623;52.120;8.660;2023-05-29T10:57:29;22.50;45.50
13115;DHT22;6623;52.120;8.660;2023-05-29T11:00:07;22.50;45.50
13115;DHT22;6623;52.120;8.660;2023-05-29T11:02:40;22.50;45.40
13115;DHT22;6623;52.120;8.660;2023-05-29T11:05:18;22.50;45.40
13115;DHT22;6623;52.120;8.660;2023-05-29T11:07:52;22.50;45.50
13115;DHT22;6623;52.120;8.660;2023-05-29T11:10:43;22.50;45.50
13115;DHT22;6623;52.120;8.660;2023-05-29T11:13:23;22.50;45.50
13115;DHT22;6623;52.120;8.660;2023-05-29T11:16:20;22.50;45.50
13115;DHT22;6623;52.120;8.660;2023-05-29T11:18:47;22.50;46.10
13115;DHT22;6623;52.120;8.660;2023-05-29T11:21:29;22.50;45.50
13115;DHT22;6623;52.120;8.660;2023-05-29T11:23:58;22.50;45.50
13115;DHT22;6623;52.120;8.660;2023-05-29T11:26:27;22.50;45.50
13115;DHT22;6623;52.120;8.660;2023-05-29T11:28:56;22.50;45.50
13115;DHT22;6623;52.120;8.660;2023-05-29T11:31:22;22.50;45.50
13115;DHT22;6623;52.120;8.660;2023-05-29T11:33:49;22.50;46.10
13115;DHT22;6623;52.120;8.660;2023-05-29T11:36:17;22.50;45.50
13115;DHT22;6623;52.120;8.660;2023-05-29T11:38:45;22.50;45.50
13115;DHT22;6623;52.120;8.660;2023-05-29T11:41:10;22.50;45.50
13115;DHT22;6623;52.120;8.660;2023-05-29T11:43:36;22.50;45.50
13115;DHT22;6623;52.120;8.660;2023-05-29T11:46:02;22.50;45.50
13115;DHT22;6623;52.120;8.660;2023-05-29T11:48:27;22.50;45.40
13115;DHT22;6623;52.120;8.660;2023-05-29T11:50:53;22.50;45.40
13115;DHT22;6623;52.120;8.660;2023-05-29T11:53:19;22.50;45.50
13115;DHT22;6623;52.120;8.660;2023-05-29T11:55:45;22.50;45.50
13115;DHT22;6623;52.120;8.660;2023-05-29T11:58:10;22.50;45.40
13115;DHT22;6623;52.120;8.660;2023-05-29T12:00:38;22.50;45.40
13115;DHT22;6623;52.120;8.660;2023-05-29T12:03:06;22.50;45.40
13115;DHT22;6623;52.120;8.660;2023-05-29T12:05:46;22.60;45.50
13115;DHT22;6623;52.120;8.660;2023-05-29T12:08:13;22.60;45.50
13115;DHT22;6623;52.120;8.660;2023-05-29T12:10:47;22.50;45.40
13115;DHT22;6623;52.120;8.660;2023-05-29T12:13:13;22.50;45.50
13115;DHT22;6623;52.120;8.660;2023-05-29T12:15:42;22.50;45.40
13115;DHT22;6623;52.120;8.660;2023-05-29T12:18:08;22.50;45.40
13115;DHT22;6623;52.120;8.660;2023-05-29T12:20:34;22.50;45.50
13115;DHT22;6623;52.120;8.660;2023-05-29T12:23:01;22.50;45.40
13115;DHT22;6623;52.120;8.660;2023-05-29T12:25:27;22.60;45.50
13115;DHT22;6623;52.120;8.660;2023-05-29T12:27:55;22.50;45.40
13115;DHT22;6623;52.120;8.660;2023-05-29T12:30:22;22.50;45.40
13115;DHT22;6623;52.120;8.660;2023-05-29T12:32:49;22.50;45.40
13115;DHT22;6623;52.120;8.660;2023-05-29T12:35:18;22.50;45.40
13115;DHT22;6623;52.120;8.660;2023-05-29T12:37:56;22.50;45.40
13115;DHT22;6623;52.120;8.660;2023-05-29T12:43:17;22.60;45.50
13115;DHT22;6623;52.120;8.660;2023-05-29T12:45:42;22.50;45.40
13115;DHT22;6623;52.120;8.660;2023-05-29T12:48:08;22.50;45.40
13115;DHT22;6623;52.120;8.660;2023-05-29T12:50:37;22.50;45.40
13115;DHT22;6623;52.120;8.660;2023-05-29T12:53:08;22.50;45.40
13115;DHT22;6623;52.120;8.660;2023-05-29T12:55:38;22.60;45.50
13115;DHT22;6623;52.120;8.660;2023-05-29T12:58:05;22.50;45.40
13115;DHT22;6623;52.120;8.660;2023-05-29T13:00:31;22.60;45.50
13115;DHT22;6623;52.120;8.660;2023-05-29T13:02:56;22.50;45.40
13115;DHT22;6623;52.120;8.660;2023-05-29T13:05:22;22.60;45.50
13115;DHT22;6623;52.120;8.660;2023-05-29T13:07:49;22.50;45.40
13115;DHT22;6623;52.120;8.660;2023-05-29T13:10:15;22.60;45.40
13115;DHT22;6623;52.120;8.660;2023-05-29T13:12:42;22.50;45.40
13115;DHT22;6623;52.120;8.660;2023-05-29T13:15:09;22.50;45.40
13115;DHT22;6623;52.120;8.660;2023-05-29T13:17:35;22.60;45.40
13115;DHT22;6623;52.120;8.660;2023-05-29T13:20:01;22.50;45.40
13115;DHT22;6623;52.120;8.660;2023-05-29T13:22:26;22.50;45.40
13115;DHT22;6623;52.120;8.660;2023-05-29T13:24:57;22.60;46.10
13115;DHT22;6623;52.120;8.660;2023-05-29T13:27:23;22.60;45.40
13115;DHT22;6623;52.120;8.660;2023-05-29T13:29:49;22.60;45.40
13115;DHT22;6623;52.120;8.660;2023-05-29T13:32:15;22.60;45.40
13115;DHT22;6623;52.120;8.660;2023-05-29T13:34:41;22.60;45.40
13115;DHT22;6623;52.120;8.660;2023-05-29T13:37:07;22.60;45.40
13115;DHT22;6623;52.120;8.660;2023-05-29T13:39:32;22.60;45.40
13115;DHT22;6623;52.120;8.660;2023-05-29T13:41:58;22.50;45.40
13115;DHT22;6623;52.120;8.660;2023-05-29T13:44:23;22.60;45.40
13115;DHT22;6623;52.120;8.660;2023-05-29T13:46:49;22.60;45.40
13115;DHT22;6623;52.120;8.660;2023-05-29T13:49:16;22.60;45.40
13115;DHT22;6623;52.120;8.660;2023-05-29T13:51:41;22.60;45.40
13115;DHT22;6623;52.120;8.660;2023-05-29T13:54:07;22.60;45.40
13115;DHT22;6623;52.120;8.660;2023-05-29T13:56:32;22.60;45.40
13115;DHT22;6623;52.120;8.660;2023-05-29T13:58:58;22.60;45.40
13115;DHT22;6623;52.120;8.660;2023-05-29T14:01:30;22.60;45.40
13115;DHT22;6623;52.120;8.660;2023-05-29T14:03:56;22.60;45.40
13115;DHT22;6623;52.120;8.660;2023-05-29T14:06:21;22.60;45.40
13115;DHT22;6623;52.120;8.660;2023-05-29T14:08:47;22.60;45.40
13115;DHT22;6623;52.120;8.660;2023-05-29T14:11:12;22.60;45.40
13115;DHT22;6623;52.120;8.660;2023-05-29T14:13:38;22.60;45.40
13115;DHT22;6623;52.120;8.660;2023-05-29T14:16:03;22.60;45.40
13115;DHT22;6623;52.120;8.660;2023-05-29T14:18:29;22.60;45.40
13115;DHT22;6623;52.120;8.660;2023-05-29T14:20:54;22.60;45.40
13115;DHT22;6623;52.120;8.660;2023-05-29T14:23:20;22.60;45.40
13115;DHT22;6623;52.120;8.660;2023-05-29T14:25:45;22.60;45.30
13115;DHT22;6623;52.120;8.660;2023-05-29T14:28:11;22.60;45.30
13115;DHT22;6623;52.120;8.660;2023-05-29T14:30:37;22.60;45.30
13115;DHT22;6623;52.120;8.660;2023-05-29T14:33:03;22.60;45.30
13115;DHT22;6623;52.120;8.660;2023-05-29T14:35:29;22.60;45.30
13115;DHT22;6623;52.120;8.660;2023-05-29T14:37:55;22.60;45.30
13115;DHT22;6623;52.120;8.660;2023-05-29T14:40:21;22.60;45.30
13115;DHT22;6623;52.120;8.660;2023-05-29T14:42:46;22.60;45.30
13115;DHT22;6623;52.120;8.660;2023-05-29T14:45:12;22.60;45.30
13115;DHT22;6623;52.120;8.660;2023-05-29T14:47:38;22.60;45.30
13115;DHT22;6623;52.120;8.660;2023-05-29T14:50:04;22.60;45.30
13115;DHT22;6623;52.120;8.660;2023-05-29T14:52:30;22.60;45.30
13115;DHT22;6623;52.120;8.660;2023-05-29T14:54:55;22.60;45.30
13115;DHT22;6623;52.120;8.660;2023-05-29T14:57:21;22.60;45.30
13115;DHT22;6623;52.120;8.660;2023-05-29T14:59:48;22.60;45.30
13115;DHT22;6623;52.120;8.660;2023-05-29T15:02:14;22.60;45.20
13115;DHT22;6623;52.120;8.660;2023-05-29T15:04:40;22.60;45.20
13115;DHT22;6623;52.120;8.660;2023-05-29T15:07:05;22.60;45.20
13115;DHT22;6623;52.120;8.660;2023-05-29T15:09:31;22.60;45.20
13115;DHT22;6623;52.120;8.660;2023-05-29T15:11:57;22.60;45.20
13115;DHT22;6623;52.120;8.660;2023-05-29T15:14:23;22.60;45.20
13115;DHT22;6623;52.120;8.660;2023-05-29T15:16:49;22.60;45.20
13115;DHT22;6623;52.120;8.660;2023-05-29T15:19:14;22.60;45.20
13115;DHT22;6623;52.120;8.660;2023-05-29T15:21:40;22.60;45.20
13115;DHT22;6623;52.120;8.660;2023-05-29T15:24:06;22.60;45.20
13115;DHT22;6623;52.120;8.660;2023-05-29T15:26:33;22.60;45.20
13115;DHT22;6623;52.120;8.660;2023-05-29T15:28:59;22.60;45.20
13115;DHT22;6623;52.120;8.660;2023-05-29T15:31:24;22.60;45.10
13115;DHT22;6623;52.120;8.660;2023-05-29T15:33:50;22.60;45.10
13115;DHT22;6623;52.120;8.660;2023-05-29T15:36:16;22.60;45.10
13115;DHT22;6623;52.120;8.660;2023-05-29T15:38:42;22.60;45.10
13115;DHT22;6623;52.120;8.660;2023-05-29T15:41:07;22.60;45.10
13115;DHT22;6623;52.120;8.660;2023-05-29T15:43:33;22.60;45.10
13115;DHT22;6623;52.120;8.660;2023-05-29T15:45:59;22.60;45.10
13115;DHT22;6623;52.120;8.660;2023-05-29T15:48:25;22.60;45.10
13115;DHT22;6623;52.120;8.660;2023-05-29T15:50:50;22.60;45.10
13115;DHT22;6623;52.120;8.660;2023-05-29T15:53:15;22.60;45.10
13115;DHT22;6623;52.120;8.660;2023-05-29T15:55:41;22.60;45.10
13115;DHT22;6623;52.120;8.660;2023-05-29T15:58:07;22.60;45.10